Bransgore, United Kingdom
Current Conditions -  °F | °C
As of 4:50 PM on Thursday 30 Oct 2014 (Local Time) from EGHH Reporting Station
Haze Haze  
Wind Chill: 61°   Ceiling: 1400
Heat Index: 61°   Visibility: 3mi
Dew Point: 59°   Wind: 5mph
Humidity: 94%   Direction: 170°S
Pressure: 30.06"   Gusts: NA
Location:  50.78°N, 1.74°W
Report Text: EGHH 301650Z 17004KT 5000 BR BKN014 16/15 Q1018
Loading
Personal Weather Stations






























Interactive Weather Map
Tropical Storm Tracking
New forecast layout! Learn more

10-Day Weather Forecast

Advertisements
Track Severe Weather on mobile